sensor_id;sensor_type;location;lat;lon;timestamp;temperature;humidity
29207;DHT22;16247;50.840;4.382;2023-11-19T06:09:17;13.20;99.90
29207;DHT22;16247;50.840;4.382;2023-11-19T06:12:10;13.20;99.90
29207;DHT22;16247;50.840;4.382;2023-11-19T06:15:20;13.40;99.90
29207;DHT22;16247;50.840;4.382;2023-11-19T06:18:10;13.20;99.90
29207;DHT22;16247;50.840;4.382;2023-11-19T06:20:47;13.30;99.90
29207;DHT22;16247;50.840;4.382;2023-11-19T06:23:12;13.10;99.90
29207;DHT22;16247;50.840;4.382;2023-11-19T06:25:38;13.20;99.90
29207;DHT22;16247;50.840;4.382;2023-11-19T06:28:07;13.20;99.90
29207;DHT22;16247;50.840;4.382;2023-11-19T06:30:34;13.10;99.90
29207;DHT22;16247;50.840;4.382;2023-11-19T06:33:01;13.20;99.90
29207;DHT22;16247;50.840;4.382;2023-11-19T06:35:28;13.10;99.90
29207;DHT22;16247;50.840;4.382;2023-11-19T06:41:00;13.30;99.90
29207;DHT22;16247;50.840;4.382;2023-11-19T06:43:34;12.90;99.90
29207;DHT22;16247;50.840;4.382;2023-11-19T07:10:16;12.60;99.90
29207;DHT22;16247;50.840;4.382;2023-11-19T07:24:22;12.70;99.90
29207;DHT22;16247;50.840;4.382;2023-11-19T07:31:29;12.80;99.90
29207;DHT22;16247;50.840;4.382;2023-11-19T07:33:45;12.80;99.90
29207;DHT22;16247;50.840;4.382;2023-11-19T07:36:22;13.00;99.90
29207;DHT22;16247;50.840;4.382;2023-11-19T07:46:34;12.90;99.90
29207;DHT22;16247;50.840;4.382;2023-11-19T08:11:12;12.70;99.90
29207;DHT22;16247;50.840;4.382;2023-11-19T08:13:37;13.00;99.90
29207;DHT22;16247;50.840;4.382;2023-11-19T08:16:03;13.50;99.90
29207;DHT22;16247;50.840;4.382;2023-11-19T08:18:36;13.60;99.90
29207;DHT22;16247;50.840;4.382;2023-11-19T08:21:06;13.50;99.90
29207;DHT22;16247;50.840;4.382;2023-11-19T08:26:04;13.10;99.90
29207;DHT22;16247;50.840;4.382;2023-11-19T08:28:30;13.00;99.90
29207;DHT22;16247;50.840;4.382;2023-11-19T08:30:58;12.90;99.90
29207;DHT22;16247;50.840;4.382;2023-11-19T08:33:27;13.00;99.90
29207;DHT22;16247;50.840;4.382;2023-11-19T08:35:53;13.00;99.90
29207;DHT22;16247;50.840;4.382;2023-11-19T08:38:20;13.00;99.90
29207;DHT22;16247;50.840;4.382;2023-11-19T08:40:46;13.20;99.90
29207;DHT22;16247;50.840;4.382;2023-11-19T08:43:12;13.20;99.90
29207;DHT22;16247;50.840;4.382;2023-11-19T08:45:38;13.10;99.90
29207;DHT22;16247;50.840;4.382;2023-11-19T08:48:03;13.10;99.90
29207;DHT22;16247;50.840;4.382;2023-11-19T08:50:30;13.00;99.90
29207;DHT22;16247;50.840;4.382;2023-11-19T08:52:56;12.90;99.90
29207;DHT22;16247;50.840;4.382;2023-11-19T08:55:22;12.80;99.90
29207;DHT22;16247;50.840;4.382;2023-11-19T08:57:47;13.00;99.90
29207;DHT22;16247;50.840;4.382;2023-11-19T09:00:13;12.90;99.90
29207;DHT22;16247;50.840;4.382;2023-11-19T09:02:42;12.90;99.90
29207;DHT22;16247;50.840;4.382;2023-11-19T09:05:08;12.90;99.90
29207;DHT22;16247;50.840;4.382;2023-11-19T09:07:34;12.90;99.90
29207;DHT22;16247;50.840;4.382;2023-11-19T09:10:01;12.90;99.90
29207;DHT22;16247;50.840;4.382;2023-11-19T09:12:28;13.10;99.90
29207;DHT22;16247;50.840;4.382;2023-11-19T09:14:53;13.00;99.90
29207;DHT22;16247;50.840;4.382;2023-11-19T09:17:19;12.90;99.90
29207;DHT22;16247;50.840;4.382;2023-11-19T09:19:45;13.10;99.90
29207;DHT22;16247;50.840;4.382;2023-11-19T09:22:11;13.20;99.90
29207;DHT22;16247;50.840;4.382;2023-11-19T09:24:50;13.10;99.90
29207;DHT22;16247;50.840;4.382;2023-11-19T09:27:20;13.40;99.90
29207;DHT22;16247;50.840;4.382;2023-11-19T09:29:48;13.10;99.90
29207;DHT22;16247;50.840;4.382;2023-11-19T09:32:17;13.20;99.90
29207;DHT22;16247;50.840;4.382;2023-11-19T09:34:43;13.30;99.90
29207;DHT22;16247;50.840;4.382;2023-11-19T09:37:08;13.30;99.90
29207;DHT22;16247;50.840;4.382;2023-11-19T09:39:34;13.20;99.90
29207;DHT22;16247;50.840;4.382;2023-11-19T09:42:01;13.20;99.90
29207;DHT22;16247;50.840;4.382;2023-11-19T09:44:27;13.20;99.90
29207;DHT22;16247;50.840;4.382;2023-11-19T09:46:53;13.20;99.90
29207;DHT22;16247;50.840;4.382;2023-11-19T09:49:21;13.40;99.90
29207;DHT22;16247;50.840;4.382;2023-11-19T09:51:54;13.40;99.90
29207;DHT22;16247;50.840;4.382;2023-11-19T09:54:22;13.40;99.90
29207;DHT22;16247;50.840;4.382;2023-11-19T09:56:49;13.60;99.90
29207;DHT22;16247;50.840;4.382;2023-11-19T09:59:16;13.70;99.90
29207;DHT22;16247;50.840;4.382;2023-11-19T10:01:45;13.70;99.90
29207;DHT22;16247;50.840;4.382;2023-11-19T10:04:12;13.70;99.90
29207;DHT22;16247;50.840;4.382;2023-11-19T10:06:43;13.40;99.90
29207;DHT22;16247;50.840;4.382;2023-11-19T10:09:08;13.70;99.90
29207;DHT22;16247;50.840;4.382;2023-11-19T10:11:34;13.60;99.90
29207;DHT22;16247;50.840;4.382;2023-11-19T10:14:00;13.60;99.90
29207;DHT22;16247;50.840;4.382;2023-11-19T10:16:34;13.50;99.90
29207;DHT22;16247;50.840;4.382;2023-11-19T10:19:00;13.60;99.90
29207;DHT22;16247;50.840;4.382;2023-11-19T10:21:26;13.60;99.90
29207;DHT22;16247;50.840;4.382;2023-11-19T10:23:57;13.60;99.90
29207;DHT22;16247;50.840;4.382;2023-11-19T10:26:27;13.80;99.90
29207;DHT22;16247;50.840;4.382;2023-11-19T10:28:53;13.70;99.90
29207;DHT22;16247;50.840;4.382;2023-11-19T10:31:22;13.60;99.90
29207;DHT22;16247;50.840;4.382;2023-11-19T10:33:52;13.80;99.90
29207;DHT22;16247;50.840;4.382;2023-11-19T10:36:17;13.80;99.90
29207;DHT22;16247;50.840;4.382;2023-11-19T10:38:54;14.00;99.90
29207;DHT22;16247;50.840;4.382;2023-11-19T10:41:32;14.10;99.90
29207;DHT22;16247;50.840;4.382;2023-11-19T10:44:01;14.10;99.90
29207;DHT22;16247;50.840;4.382;2023-11-19T10:46:37;13.80;99.90
29207;DHT22;16247;50.840;4.382;2023-11-19T10:49:04;13.80;99.90
29207;DHT22;16247;50.840;4.382;2023-11-19T10:51:34;13.70;99.90
29207;DHT22;16247;50.840;4.382;2023-11-19T10:54:03;13.80;99.90
29207;DHT22;16247;50.840;4.382;2023-11-19T10:56:41;13.90;99.90
29207;DHT22;16247;50.840;4.382;2023-11-19T10:59:14;13.70;99.90
29207;DHT22;16247;50.840;4.382;2023-11-19T11:01:45;13.70;99.90
29207;DHT22;16247;50.840;4.382;2023-11-19T11:04:25;13.80;99.90
29207;DHT22;16247;50.840;4.382;2023-11-19T11:10:16;13.60;99.90
29207;DHT22;16247;50.840;4.382;2023-11-19T11:13:13;14.00;99.90
29207;DHT22;16247;50.840;4.382;2023-11-19T11:15:42;13.80;99.90
29207;DHT22;16247;50.840;4.382;2023-11-19T11:18:13;13.70;99.90
29207;DHT22;16247;50.840;4.382;2023-11-19T11:29:59;13.50;99.90
29207;DHT22;16247;50.840;4.382;2023-11-19T11:36:22;13.60;99.90
29207;DHT22;16247;50.840;4.382;2023-11-19T11:42:36;13.60;99.90
29207;DHT22;16247;50.840;4.382;2023-11-19T11:45:40;13.80;99.90
29207;DHT22;16247;50.840;4.382;2023-11-19T11:48:16;13.80;99.90
29207;DHT22;16247;50.840;4.382;2023-11-19T11:50:58;14.00;99.90
29207;DHT22;16247;50.840;4.382;2023-11-19T11:53:37;13.90;99.90
29207;DHT22;16247;50.840;4.382;2023-11-19T11:59:37;14.20;99.90
29207;DHT22;16247;50.840;4.382;2023-11-19T12:02:08;14.30;99.90
29207;DHT22;16247;50.840;4.382;2023-11-19T12:04:35;14.40;99.90
29207;DHT22;16247;50.840;4.382;2023-11-19T12:07:06;14.40;99.90
29207;DHT22;16247;50.840;4.382;2023-11-19T12:09:36;14.40;99.90
29207;DHT22;16247;50.840;4.382;2023-11-19T12:12:26;14.30;99.90
29207;DHT22;16247;50.840;4.382;2023-11-19T12:17:41;14.30;99.90
29207;DHT22;16247;50.840;4.382;2023-11-19T12:20:10;14.40;99.90
29207;DHT22;16247;50.840;4.382;2023-11-19T12:22:42;14.00;99.90
29207;DHT22;16247;50.840;4.382;2023-11-19T12:25:15;13.80;99.90
29207;DHT22;16247;50.840;4.382;2023-11-19T12:27:53;13.90;99.90
29207;DHT22;16247;50.840;4.382;2023-11-19T12:31:07;13.90;99.90
29207;DHT22;16247;50.840;4.382;2023-11-19T12:33:52;13.90;99.90
29207;DHT22;16247;50.840;4.382;2023-11-19T12:36:25;13.50;99.90
29207;DHT22;16247;50.840;4.382;2023-11-19T12:38:57;13.60;99.90
29207;DHT22;16247;50.840;4.382;2023-11-19T12:41:38;13.60;99.90
29207;DHT22;16247;50.840;4.382;2023-11-19T12:44:16;13.60;99.90
29207;DHT22;16247;50.840;4.382;2023-11-19T12:46:53;13.60;99.90
29207;DHT22;16247;50.840;4.382;2023-11-19T12:49:33;13.50;99.90
29207;DHT22;16247;50.840;4.382;2023-11-19T12:52:14;13.40;99.90
29207;DHT22;16247;50.840;4.382;2023-11-19T12:54:50;13.40;99.90
29207;DHT22;16247;50.840;4.382;2023-11-19T14:02:51;13.50;99.90
29207;DHT22;16247;50.840;4.382;2023-11-19T14:05:26;13.50;99.90
29207;DHT22;16247;50.840;4.382;2023-11-19T14:14:44;13.50;99.90
29207;DHT22;16247;50.840;4.382;2023-11-19T14:17:20;13.70;99.90
29207;DHT22;16247;50.840;4.382;2023-11-19T14:19:53;13.60;99.90
29207;DHT22;16247;50.840;4.382;2023-11-19T14:26:00;13.70;99.90
29207;DHT22;16247;50.840;4.382;2023-11-19T14:29:03;13.60;99.90
29207;DHT22;16247;50.840;4.382;2023-11-19T14:31:51;13.40;99.90
29207;DHT22;16247;50.840;4.382;2023-11-19T14:37:41;13.40;99.90
29207;DHT22;16247;50.840;4.382;2023-11-19T14:40:38;13.40;99.90
29207;DHT22;16247;50.840;4.382;2023-11-19T14:46:26;13.20;99.90
29207;DHT22;16247;50.840;4.382;2023-11-19T14:48:57;13.40;99.90
29207;DHT22;16247;50.840;4.382;2023-11-19T14:51:45;13.40;99.90
29207;DHT22;16247;50.840;4.382;2023-11-19T14:54:17;13.30;99.90
29207;DHT22;16247;50.840;4.382;2023-11-19T14:56:45;13.40;99.90
29207;DHT22;16247;50.840;4.382;2023-11-19T14:59:27;13.30;99.90
29207;DHT22;16247;50.840;4.382;2023-11-19T15:02:12;13.20;99.90
29207;DHT22;16247;50.840;4.382;2023-11-19T15:04:41;13.20;99.90
29207;DHT22;16247;50.840;4.382;2023-11-19T15:07:11;13.10;99.90
29207;DHT22;16247;50.840;4.382;2023-11-19T15:09:41;13.10;99.90
29207;DHT22;16247;50.840;4.382;2023-11-19T15:12:13;13.20;99.90
29207;DHT22;16247;50.840;4.382;2023-11-19T15:15:08;13.20;99.90
29207;DHT22;16247;50.840;4.382;2023-11-19T15:21:23;13.40;99.90
29207;DHT22;16247;50.840;4.382;2023-11-19T15:24:10;13.40;99.90
29207;DHT22;16247;50.840;4.382;2023-11-19T15:30:09;13.40;99.90
29207;DHT22;16247;50.840;4.382;2023-11-19T15:32:45;13.50;99.90
29207;DHT22;16247;50.840;4.382;2023-11-19T15:35:14;13.60;99.90
29207;DHT22;16247;50.840;4.382;2023-11-19T15:38:09;13.50;99.90
29207;DHT22;16247;50.840;4.382;2023-11-19T15:40:38;13.60;99.90
29207;DHT22;16247;50.840;4.382;2023-11-19T15:43:09;13.50;99.90
29207;DHT22;16247;50.840;4.382;2023-11-19T15:57:08;13.60;99.90
29207;DHT22;16247;50.840;4.382;2023-11-19T16:03:03;13.50;99.90
29207;DHT22;16247;50.840;4.382;2023-11-19T16:06:33;13.10;99.90
29207;DHT22;16247;50.840;4.382;2023-11-19T16:09:25;13.20;99.90
29207;DHT22;16247;50.840;4.382;2023-11-19T16:12:25;13.20;99.90
29207;DHT22;16247;50.840;4.382;2023-11-19T16:22:03;13.30;99.90
29207;DHT22;16247;50.840;4.382;2023-11-19T16:25:07;13.00;99.90
29207;DHT22;16247;50.840;4.382;2023-11-19T16:27:34;13.00;99.90
29207;DHT22;16247;50.840;4.382;2023-11-19T16:30:17;12.90;99.90
29207;DHT22;16247;50.840;4.382;2023-11-19T16:33:05;12.70;99.90
29207;DHT22;16247;50.840;4.382;2023-11-19T16:36:01;12.70;99.90
29207;DHT22;16247;50.840;4.382;2023-11-19T16:38:57;12.70;99.90
29207;DHT22;16247;50.840;4.382;2023-11-19T16:45:11;12.40;99.90
29207;DHT22;16247;50.840;4.382;2023-11-19T16:47:49;12.40;99.90
29207;DHT22;16247;50.840;4.382;2023-11-19T16:50:16;12.40;99.90
29207;DHT22;16247;50.840;4.382;2023-11-19T16:52:42;12.30;99.90
29207;DHT22;16247;50.840;4.382;2023-11-19T16:55:10;12.20;99.90
29207;DHT22;16247;50.840;4.382;2023-11-19T16:57:43;12.20;99.90
29207;DHT22;16247;50.840;4.382;2023-11-19T17:00:12;12.20;99.90
29207;DHT22;16247;50.840;4.382;2023-11-19T17:02:44;12.20;99.90
29207;DHT22;16247;50.840;4.382;2023-11-19T17:05:22;12.20;99.90
29207;DHT22;16247;50.840;4.382;2023-11-19T17:07:50;12.10;99.90
29207;DHT22;16247;50.840;4.382;2023-11-19T17:10:16;12.10;99.90
29207;DHT22;16247;50.840;4.382;2023-11-19T17:12:45;11.90;99.90
29207;DHT22;16247;50.840;4.382;2023-11-19T17:15:11;12.10;99.90
29207;DHT22;16247;50.840;4.382;2023-11-19T17:17:40;12.20;99.90
29207;DHT22;16247;50.840;4.382;2023-11-19T17:20:23;12.20;99.90
29207;DHT22;16247;50.840;4.382;2023-11-19T17:22:57;12.20;99.90
29207;DHT22;16247;50.840;4.382;2023-11-19T17:26:09;12.10;99.90
29207;DHT22;16247;50.840;4.382;2023-11-19T17:28:36;12.50;99.90
29207;DHT22;16247;50.840;4.382;2023-11-19T17:34:24;12.40;99.90
29207;DHT22;16247;50.840;4.382;2023-11-19T17:40:16;12.40;99.90
29207;DHT22;16247;50.840;4.382;2023-11-19T17:42:45;12.40;99.90
29207;DHT22;16247;50.840;4.382;2023-11-19T17:45:11;12.40;99.90
29207;DHT22;16247;50.840;4.382;2023-11-19T17:47:47;12.40;99.90
29207;DHT22;16247;50.840;4.382;2023-11-19T17:50:20;12.40;99.90
29207;DHT22;16247;50.840;4.382;2023-11-19T17:53:24;12.50;99.90
29207;DHT22;16247;50.840;4.382;2023-11-19T17:56:00;12.30;99.90
29207;DHT22;16247;50.840;4.382;2023-11-19T17:58:26;12.00;99.90
29207;DHT22;16247;50.840;4.382;2023-11-19T18:01:19;12.10;99.90
29207;DHT22;16247;50.840;4.382;2023-11-19T18:03:45;12.30;99.90
29207;DHT22;16247;50.840;4.382;2023-11-19T18:06:18;12.20;99.90
29207;DHT22;16247;50.840;4.382;2023-11-19T18:08:50;12.20;99.90
29207;DHT22;16247;50.840;4.382;2023-11-19T18:11:15;11.90;99.90
29207;DHT22;16247;50.840;4.382;2023-11-19T18:14:02;12.20;99.90
29207;DHT22;16247;50.840;4.382;2023-11-19T18:17:05;12.10;99.90
29207;DHT22;16247;50.840;4.382;2023-11-19T18:19:31;12.40;99.90
29207;DHT22;16247;50.840;4.382;2023-11-19T18:22:14;12.30;99.90
29207;DHT22;16247;50.840;4.382;2023-11-19T18:24:44;12.30;99.90
29207;DHT22;16247;50.840;4.382;2023-11-19T18:27:12;12.30;99.90
29207;DHT22;16247;50.840;4.382;2023-11-19T18:29:39;12.30;99.90
29207;DHT22;16247;50.840;4.382;2023-11-19T18:32:09;12.30;99.90
29207;DHT22;16247;50.840;4.382;2023-11-19T18:34:45;12.30;99.90
29207;DHT22;16247;50.840;4.382;2023-11-19T18:37:13;12.30;99.90
29207;DHT22;16247;50.840;4.382;2023-11-19T18:39:47;12.40;99.90
29207;DHT22;16247;50.840;4.382;2023-11-19T18:42:33;12.30;99.90
29207;DHT22;16247;50.840;4.382;2023-11-19T18:45:09;12.50;99.90
29207;DHT22;16247;50.840;4.382;2023-11-19T18:47:52;12.50;99.90
29207;DHT22;16247;50.840;4.382;2023-11-19T18:50:20;12.50;99.90
29207;DHT22;16247;50.840;4.382;2023-11-19T18:52:48;12.50;99.90
29207;DHT22;16247;50.840;4.382;2023-11-19T18:55:22;12.50;99.90
29207;DHT22;16247;50.840;4.382;2023-11-19T18:58:35;12.40;99.90
29207;DHT22;16247;50.840;4.382;2023-11-19T19:22:46;12.20;99.90
29207;DHT22;16247;50.840;4.382;2023-11-19T19:25:13;12.20;99.90
29207;DHT22;16247;50.840;4.382;2023-11-19T19:28:18;12.30;99.90
29207;DHT22;16247;50.840;4.382;2023-11-19T19:31:42;12.30;99.90
29207;DHT22;16247;50.840;4.382;2023-11-19T19:34:59;12.20;99.90
29207;DHT22;16247;50.840;4.382;2023-11-19T19:41:22;12.00;99.90
29207;DHT22;16247;50.840;4.382;2023-11-19T19:43:55;12.20;99.90
29207;DHT22;16247;50.840;4.382;2023-11-19T19:46:43;12.10;99.90
29207;DHT22;16247;50.840;4.382;2023-11-19T19:49:52;12.10;99.90
29207;DHT22;16247;50.840;4.382;2023-11-19T19:52:38;12.10;99.90
29207;DHT22;16247;50.840;4.382;2023-11-19T19:55:07;12.20;99.90
29207;DHT22;16247;50.840;4.382;2023-11-19T19:57:34;12.20;99.90
29207;DHT22;16247;50.840;4.382;2023-11-19T20:00:03;12.10;99.90
29207;DHT22;16247;50.840;4.382;2023-11-19T20:02:36;12.20;99.90
29207;DHT22;16247;50.840;4.382;2023-11-19T20:05:03;12.50;99.90
29207;DHT22;16247;50.840;4.382;2023-11-19T20:07:41;12.20;99.90
29207;DHT22;16247;50.840;4.382;2023-11-19T20:10:09;12.30;99.90
29207;DHT22;16247;50.840;4.382;2023-11-19T20:12:38;12.40;99.90
29207;DHT22;16247;50.840;4.382;2023-11-19T20:15:08;12.40;99.90
29207;DHT22;16247;50.840;4.382;2023-11-19T20:17:36;12.30;99.90
29207;DHT22;16247;50.840;4.382;2023-11-19T20:20:02;12.40;99.90
29207;DHT22;16247;50.840;4.382;2023-11-19T20:22:28;12.30;99.90
29207;DHT22;16247;50.840;4.382;2023-11-19T20:24:54;12.30;99.90
29207;DHT22;16247;50.840;4.382;2023-11-19T20:27:20;12.40;99.90
29207;DHT22;16247;50.840;4.382;2023-11-19T20:29:47;12.40;99.90
29207;DHT22;16247;50.840;4.382;2023-11-19T20:32:14;12.50;99.90
29207;DHT22;16247;50.840;4.382;2023-11-19T20:34:41;12.50;99.90
29207;DHT22;16247;50.840;4.382;2023-11-19T20:37:12;12.40;99.90
29207;DHT22;16247;50.840;4.382;2023-11-19T20:43:13;12.40;99.90
29207;DHT22;16247;50.840;4.382;2023-11-19T20:46:06;12.50;99.90
29207;DHT22;16247;50.840;4.382;2023-11-19T20:56:30;12.40;99.90
29207;DHT22;16247;50.840;4.382;2023-11-19T20:59:37;12.40;99.90
29207;DHT22;16247;50.840;4.382;2023-11-19T21:02:26;12.40;99.90
29207;DHT22;16247;50.840;4.382;2023-11-19T21:05:16;12.20;99.90
29207;DHT22;16247;50.840;4.382;2023-11-19T21:10:48;12.10;99.90
29207;DHT22;16247;50.840;4.382;2023-11-19T21:17:10;12.00;99.90
29207;DHT22;16247;50.840;4.382;2023-11-19T21:20:00;12.10;99.90
29207;DHT22;16247;50.840;4.382;2023-11-19T21:25:01;12.00;99.90
29207;DHT22;16247;50.840;4.382;2023-11-19T21:27:35;12.10;99.90
29207;DHT22;16247;50.840;4.382;2023-11-19T21:33:32;12.00;99.90
29207;DHT22;16247;50.840;4.382;2023-11-19T21:38:39;12.20;99.90
29207;DHT22;16247;50.840;4.382;2023-11-19T21:41:05;12.20;99.90
29207;DHT22;16247;50.840;4.382;2023-11-19T21:43:39;12.30;99.90
29207;DHT22;16247;50.840;4.382;2023-11-19T22:01:33;12.10;99.90
29207;DHT22;16247;50.840;4.382;2023-11-19T22:07:57;12.10;99.90
29207;DHT22;16247;50.840;4.382;2023-11-19T22:13:05;12.20;99.90
29207;DHT22;16247;50.840;4.382;2023-11-19T22:15:33;12.10;99.90
29207;DHT22;16247;50.840;4.382;2023-11-19T22:18:21;12.20;99.90
29207;DHT22;16247;50.840;4.382;2023-11-19T22:20:52;12.00;99.90
29207;DHT22;16247;50.840;4.382;2023-11-19T22:31:59;12.10;99.90
29207;DHT22;16247;50.840;4.382;2023-11-19T22:44:39;12.30;99.90
29207;DHT22;16247;50.840;4.382;2023-11-19T22:47:18;12.20;99.90
29207;DHT22;16247;50.840;4.382;2023-11-19T22:50:10;12.20;99.90
29207;DHT22;16247;50.840;4.382;2023-11-19T22:59:23;12.40;99.90
29207;DHT22;16247;50.840;4.382;2023-11-19T23:02:00;12.40;99.90
29207;DHT22;16247;50.840;4.382;2023-11-19T23:10:48;12.40;99.90
29207;DHT22;16247;50.840;4.382;2023-11-19T23:13:40;12.30;99.90
29207;DHT22;16247;50.840;4.382;2023-11-19T23:16:38;12.20;99.90
29207;DHT22;16247;50.840;4.382;2023-11-19T23:19:33;12.40;99.90
29207;DHT22;16247;50.840;4.382;2023-11-19T23:22:30;12.40;99.90
29207;DHT22;16247;50.840;4.382;2023-11-19T23:25:25;12.20;99.90
29207;DHT22;16247;50.840;4.382;2023-11-19T23:28:00;12.30;99.90
29207;DHT22;16247;50.840;4.382;2023-11-19T23:30:29;12.30;99.90
29207;DHT22;16247;50.840;4.382;2023-11-19T23:32:56;12.30;99.90
29207;DHT22;16247;50.840;4.382;2023-11-19T23:35:38;12.40;99.90
29207;DHT22;16247;50.840;4.382;2023-11-19T23:38:04;12.40;99.90
29207;DHT22;16247;50.840;4.382;2023-11-19T23:40:30;12.60;99.90
29207;DHT22;16247;50.840;4.382;2023-11-19T23:42:56;12.40;99.90
29207;DHT22;16247;50.840;4.382;2023-11-19T23:45:22;12.50;99.90
29207;DHT22;16247;50.840;4.382;2023-11-19T23:47:48;12.40;99.90
29207;DHT22;16247;50.840;4.382;2023-11-19T23:50:14;12.70;99.90
29207;DHT22;16247;50.840;4.382;2023-11-19T23:52:42;12.60;99.90
